Main page
Satellite images 15-day forecastsClimateMarine weather Cyclones Lightning AirportsFAQ Newsletter About
Weather : Europe Africa North America South America Asia Australia-Oceania Others
Languages Contact

Tunis, Tunisia

Carthage

latitude: 36-50N, longitude: 010-14E, elevation: 3 m


METAR: DTTA 212130Z 33004KT CAVOK 25/20 Q1015 NOSIG
short-TAF: out of date (382 hours)
long-TAF: DTTA 211604Z 2118/2218 05008KT 9999 FEW030 PROB30 TEMPO 2202/2207 6000 -RA -TSRA FEW026CB SCT030

Time: 22:59 (21:59 UTC)

Current weather observation

The report was made 28 minutes ago, at 21:30 UTC  
Wind 04 kt from the North/Northwest
Temperature 25°C
Humidity 74%
Pressure 1015 hPa
Visibility 10 km or more
no clouds below 1500 m and no cumulonimbus

Change units

Forecast

The report was made 5 hours and 53 minutes ago, at 16:06 UTC  
Forecast valid from 21 at 18 UTC to 22 at 18 UTC
Wind 08 kt from the Northeast
Visibility 10 km or more
Few clouds at a height of 3000 ft
Probability 30% :
Temporary
from 22 at 02 UTC to 22 at 07 UTC
Visibility 6000 m
Few clouds at a height of 2600 ft , Cumulonimbus.
Scattered clouds at a height of 3000 ft
light rain and light thunderstorm rain
The information on this site is subject to a disclaimer
Weather : Europe Africa North America South America Asia Australia-Oceania Others
Satellite images 15-day forecastsClimateMarine weather Cyclones Lightning AirportsFAQ Languages Contact Newsletter About